sensor_id;sensor_type;location;lat;lon;timestamp;P1;durP1;ratioP1;P2;durP2;ratioP2
54368;SDS011;40266;52.434;17.056;2023-03-14T00:02:05;10.30;;;4.60;;
54368;SDS011;40266;52.434;17.056;2023-03-14T00:04:49;8.10;;;4.70;;
54368;SDS011;40266;52.434;17.056;2023-03-14T00:07:36;10.00;;;4.40;;
54368;SDS011;40266;52.434;17.056;2023-03-14T00:10:20;7.90;;;4.20;;
54368;SDS011;40266;52.434;17.056;2023-03-14T00:13:04;9.10;;;3.70;;
54368;SDS011;40266;52.434;17.056;2023-03-14T00:15:47;11.80;;;4.40;;
54368;SDS011;40266;52.434;17.056;2023-03-14T00:18:32;9.70;;;3.40;;
54368;SDS011;40266;52.434;17.056;2023-03-14T00:21:16;8.00;;;4.40;;
54368;SDS011;40266;52.434;17.056;2023-03-14T00:24:02;8.30;;;3.90;;
54368;SDS011;40266;52.434;17.056;2023-03-14T00:26:45;8.00;;;3.80;;
54368;SDS011;40266;52.434;17.056;2023-03-14T00:29:29;6.60;;;3.60;;
54368;SDS011;40266;52.434;17.056;2023-03-14T00:32:13;8.50;;;3.50;;
54368;SDS011;40266;52.434;17.056;2023-03-14T00:34:56;8.00;;;3.30;;
54368;SDS011;40266;52.434;17.056;2023-03-14T00:37:42;5.60;;;3.20;;
54368;SDS011;40266;52.434;17.056;2023-03-14T00:40:26;8.20;;;3.30;;
54368;SDS011;40266;52.434;17.056;2023-03-14T00:43:10;5.70;;;3.40;;
54368;SDS011;40266;52.434;17.056;2023-03-14T00:45:53;5.20;;;3.10;;
54368;SDS011;40266;52.434;17.056;2023-03-14T00:48:37;5.40;;;3.20;;
54368;SDS011;40266;52.434;17.056;2023-03-14T00:51:22;10.80;;;3.50;;
54368;SDS011;40266;52.434;17.056;2023-03-14T00:54:05;9.20;;;3.60;;
54368;SDS011;40266;52.434;17.056;2023-03-14T00:56:48;7.30;;;3.70;;
54368;SDS011;40266;52.434;17.056;2023-03-14T00:59:33;10.40;;;3.40;;
54368;SDS011;40266;52.434;17.056;2023-03-14T01:02:16;9.80;;;3.50;;
54368;SDS011;40266;52.434;17.056;2023-03-14T01:04:59;5.10;;;2.90;;
54368;SDS011;40266;52.434;17.056;2023-03-14T01:07:43;6.30;;;2.80;;
54368;SDS011;40266;52.434;17.056;2023-03-14T01:10:26;7.50;;;3.20;;
54368;SDS011;40266;52.434;17.056;2023-03-14T01:13:11;6.80;;;2.70;;
54368;SDS011;40266;52.434;17.056;2023-03-14T01:15:54;6.30;;;2.40;;
54368;SDS011;40266;52.434;17.056;2023-03-14T01:18:38;4.40;;;2.30;;
54368;SDS011;40266;52.434;17.056;2023-03-14T01:21:29;6.30;;;1.70;;
54368;SDS011;40266;52.434;17.056;2023-03-14T01:24:14;1.70;;;1.30;;
54368;SDS011;40266;52.434;17.056;2023-03-14T01:26:59;2.30;;;1.60;;
54368;SDS011;40266;52.434;17.056;2023-03-14T01:29:43;3.10;;;1.50;;
54368;SDS011;40266;52.434;17.056;2023-03-14T01:32:26;2.30;;;1.20;;
54368;SDS011;40266;52.434;17.056;2023-03-14T01:35:10;1.90;;;1.30;;
54368;SDS011;40266;52.434;17.056;2023-03-14T01:37:54;2.30;;;1.40;;
54368;SDS011;40266;52.434;17.056;2023-03-14T01:40:41;1.80;;;1.20;;
54368;SDS011;40266;52.434;17.056;2023-03-14T01:43:26;1.60;;;1.10;;
54368;SDS011;40266;52.434;17.056;2023-03-14T01:52:01;1.10;;;0.80;;
54368;SDS011;40266;52.434;17.056;2023-03-14T01:54:50;3.60;;;1.20;;
54368;SDS011;40266;52.434;17.056;2023-03-14T01:57:47;2.40;;;1.50;;
54368;SDS011;40266;52.434;17.056;2023-03-14T02:00:37;3.70;;;1.10;;
54368;SDS011;40266;52.434;17.056;2023-03-14T02:03:21;1.20;;;0.70;;
54368;SDS011;40266;52.434;17.056;2023-03-14T02:06:07;3.10;;;1.20;;
54368;SDS011;40266;52.434;17.056;2023-03-14T02:08:56;2.80;;;1.10;;
54368;SDS011;40266;52.434;17.056;2023-03-14T02:11:42;1.90;;;1.50;;
54368;SDS011;40266;52.434;17.056;2023-03-14T02:14:46;1.40;;;0.80;;
54368;SDS011;40266;52.434;17.056;2023-03-14T02:17:45;2.00;;;1.40;;
54368;SDS011;40266;52.434;17.056;2023-03-14T02:20:45;4.60;;;1.60;;
54368;SDS011;40266;52.434;17.056;2023-03-14T02:23:35;2.20;;;1.40;;
54368;SDS011;40266;52.434;17.056;2023-03-14T02:30:04;3.30;;;1.50;;
54368;SDS011;40266;52.434;17.056;2023-03-14T02:32:57;2.20;;;1.70;;
54368;SDS011;40266;52.434;17.056;2023-03-14T02:35:46;3.20;;;2.20;;
54368;SDS011;40266;52.434;17.056;2023-03-14T02:41:32;3.40;;;2.20;;
54368;SDS011;40266;52.434;17.056;2023-03-14T02:44:18;2.50;;;2.00;;
54368;SDS011;40266;52.434;17.056;2023-03-14T02:47:03;3.60;;;2.30;;
54368;SDS011;40266;52.434;17.056;2023-03-14T02:49:48;2.80;;;2.50;;
54368;SDS011;40266;52.434;17.056;2023-03-14T02:52:33;3.60;;;2.40;;
54368;SDS011;40266;52.434;17.056;2023-03-14T02:55:21;4.10;;;2.90;;
54368;SDS011;40266;52.434;17.056;2023-03-14T02:58:09;5.00;;;3.10;;
54368;SDS011;40266;52.434;17.056;2023-03-14T03:00:57;6.70;;;3.00;;
54368;SDS011;40266;52.434;17.056;2023-03-14T03:03:41;7.20;;;2.80;;
54368;SDS011;40266;52.434;17.056;2023-03-14T03:06:25;6.20;;;2.90;;
54368;SDS011;40266;52.434;17.056;2023-03-14T03:09:13;5.30;;;3.10;;
54368;SDS011;40266;52.434;17.056;2023-03-14T03:11:57;7.50;;;3.70;;
54368;SDS011;40266;52.434;17.056;2023-03-14T03:14:41;6.90;;;3.30;;
54368;SDS011;40266;52.434;17.056;2023-03-14T03:17:26;6.10;;;3.60;;
54368;SDS011;40266;52.434;17.056;2023-03-14T03:20:09;5.70;;;3.30;;
54368;SDS011;40266;52.434;17.056;2023-03-14T03:22:55;8.60;;;3.60;;
54368;SDS011;40266;52.434;17.056;2023-03-14T03:25:38;7.20;;;3.90;;
54368;SDS011;40266;52.434;17.056;2023-03-14T03:28:22;5.00;;;3.50;;
54368;SDS011;40266;52.434;17.056;2023-03-14T03:31:08;7.70;;;3.50;;
54368;SDS011;40266;52.434;17.056;2023-03-14T03:33:54;8.10;;;4.00;;
54368;SDS011;40266;52.434;17.056;2023-03-14T03:36:40;9.80;;;4.20;;
54368;SDS011;40266;52.434;17.056;2023-03-14T03:39:24;11.30;;;4.60;;
54368;SDS011;40266;52.434;17.056;2023-03-14T03:42:08;8.80;;;4.30;;
54368;SDS011;40266;52.434;17.056;2023-03-14T03:44:53;8.10;;;4.30;;
54368;SDS011;40266;52.434;17.056;2023-03-14T03:47:38;9.40;;;4.30;;
54368;SDS011;40266;52.434;17.056;2023-03-14T03:50:23;8.60;;;4.00;;
54368;SDS011;40266;52.434;17.056;2023-03-14T03:53:07;7.10;;;3.70;;
54368;SDS011;40266;52.434;17.056;2023-03-14T03:55:51;7.50;;;4.00;;
54368;SDS011;40266;52.434;17.056;2023-03-14T03:58:35;7.80;;;3.60;;
54368;SDS011;40266;52.434;17.056;2023-03-14T04:01:21;7.10;;;3.60;;
54368;SDS011;40266;52.434;17.056;2023-03-14T04:04:06;9.90;;;3.40;;
54368;SDS011;40266;52.434;17.056;2023-03-14T04:06:50;7.40;;;3.90;;
54368;SDS011;40266;52.434;17.056;2023-03-14T04:09:34;8.70;;;4.30;;
54368;SDS011;40266;52.434;17.056;2023-03-14T04:12:45;7.70;;;3.90;;
54368;SDS011;40266;52.434;17.056;2023-03-14T04:15:35;4.20;;;3.30;;
54368;SDS011;40266;52.434;17.056;2023-03-14T04:18:25;11.10;;;4.90;;
54368;SDS011;40266;52.434;17.056;2023-03-14T04:21:09;6.30;;;3.70;;
54368;SDS011;40266;52.434;17.056;2023-03-14T04:24:03;9.10;;;3.90;;
54368;SDS011;40266;52.434;17.056;2023-03-14T04:26:51;7.40;;;4.30;;
54368;SDS011;40266;52.434;17.056;2023-03-14T04:29:34;11.40;;;3.90;;
54368;SDS011;40266;52.434;17.056;2023-03-14T04:32:18;7.50;;;3.50;;
54368;SDS011;40266;52.434;17.056;2023-03-14T04:35:04;12.20;;;4.00;;
54368;SDS011;40266;52.434;17.056;2023-03-14T04:37:50;5.90;;;3.80;;
54368;SDS011;40266;52.434;17.056;2023-03-14T04:40:37;10.50;;;4.10;;
54368;SDS011;40266;52.434;17.056;2023-03-14T04:43:27;10.80;;;4.50;;
54368;SDS011;40266;52.434;17.056;2023-03-14T04:46:16;7.90;;;4.20;;
54368;SDS011;40266;52.434;17.056;2023-03-14T04:49:00;9.10;;;4.70;;
54368;SDS011;40266;52.434;17.056;2023-03-14T04:51:47;8.50;;;4.20;;
54368;SDS011;40266;52.434;17.056;2023-03-14T04:54:31;8.50;;;4.40;;
54368;SDS011;40266;52.434;17.056;2023-03-14T04:57:15;13.10;;;4.60;;
54368;SDS011;40266;52.434;17.056;2023-03-14T05:00:01;8.10;;;3.90;;
54368;SDS011;40266;52.434;17.056;2023-03-14T05:03:18;9.90;;;4.80;;
54368;SDS011;40266;52.434;17.056;2023-03-14T05:06:23;11.50;;;4.70;;
54368;SDS011;40266;52.434;17.056;2023-03-14T05:09:27;10.80;;;5.00;;
54368;SDS011;40266;52.434;17.056;2023-03-14T05:12:31;8.30;;;4.10;;
54368;SDS011;40266;52.434;17.056;2023-03-14T05:15:37;7.80;;;4.20;;
54368;SDS011;40266;52.434;17.056;2023-03-14T05:18:39;8.70;;;4.60;;
54368;SDS011;40266;52.434;17.056;2023-03-14T05:21:42;9.20;;;4.60;;
54368;SDS011;40266;52.434;17.056;2023-03-14T05:24:28;11.30;;;4.30;;
54368;SDS011;40266;52.434;17.056;2023-03-14T05:27:30;7.90;;;4.60;;
54368;SDS011;40266;52.434;17.056;2023-03-14T05:30:22;10.60;;;4.40;;
54368;SDS011;40266;52.434;17.056;2023-03-14T05:33:37;8.50;;;4.70;;
54368;SDS011;40266;52.434;17.056;2023-03-14T05:36:29;13.80;;;4.70;;
54368;SDS011;40266;52.434;17.056;2023-03-14T05:39:24;8.50;;;4.30;;
54368;SDS011;40266;52.434;17.056;2023-03-14T05:42:07;12.60;;;5.00;;
54368;SDS011;40266;52.434;17.056;2023-03-14T05:45:21;10.40;;;4.60;;
54368;SDS011;40266;52.434;17.056;2023-03-14T05:48:38;10.60;;;4.50;;
54368;SDS011;40266;52.434;17.056;2023-03-14T05:51:45;10.60;;;5.00;;
54368;SDS011;40266;52.434;17.056;2023-03-14T05:54:50;9.90;;;5.10;;
54368;SDS011;40266;52.434;17.056;2023-03-14T05:58:11;11.10;;;5.30;;
54368;SDS011;40266;52.434;17.056;2023-03-14T06:01:19;12.10;;;4.80;;
54368;SDS011;40266;52.434;17.056;2023-03-14T06:04:21;8.10;;;4.80;;
54368;SDS011;40266;52.434;17.056;2023-03-14T06:07:15;10.30;;;4.90;;
54368;SDS011;40266;52.434;17.056;2023-03-14T06:10:03;8.80;;;4.90;;
54368;SDS011;40266;52.434;17.056;2023-03-14T06:12:50;10.00;;;4.80;;
54368;SDS011;40266;52.434;17.056;2023-03-14T06:15:38;12.00;;;5.10;;
54368;SDS011;40266;52.434;17.056;2023-03-14T06:18:22;10.10;;;4.60;;
54368;SDS011;40266;52.434;17.056;2023-03-14T06:21:06;10.60;;;4.90;;
54368;SDS011;40266;52.434;17.056;2023-03-14T06:23:50;17.40;;;4.90;;
54368;SDS011;40266;52.434;17.056;2023-03-14T06:26:35;7.50;;;4.50;;
54368;SDS011;40266;52.434;17.056;2023-03-14T06:29:19;8.10;;;4.50;;
54368;SDS011;40266;52.434;17.056;2023-03-14T06:32:03;9.50;;;4.70;;
54368;SDS011;40266;52.434;17.056;2023-03-14T06:34:52;13.10;;;5.50;;
54368;SDS011;40266;52.434;17.056;2023-03-14T06:37:36;9.00;;;4.50;;
54368;SDS011;40266;52.434;17.056;2023-03-14T06:40:20;7.50;;;3.70;;
54368;SDS011;40266;52.434;17.056;2023-03-14T06:43:33;12.70;;;4.80;;
54368;SDS011;40266;52.434;17.056;2023-03-14T06:46:17;8.80;;;3.90;;
54368;SDS011;40266;52.434;17.056;2023-03-14T06:49:01;9.30;;;4.90;;
54368;SDS011;40266;52.434;17.056;2023-03-14T06:51:45;4.90;;;3.40;;
54368;SDS011;40266;52.434;17.056;2023-03-14T06:54:32;7.60;;;3.60;;
54368;SDS011;40266;52.434;17.056;2023-03-14T06:57:17;7.60;;;3.60;;
54368;SDS011;40266;52.434;17.056;2023-03-14T07:00:00;7.20;;;3.90;;
54368;SDS011;40266;52.434;17.056;2023-03-14T07:02:45;9.30;;;3.70;;
54368;SDS011;40266;52.434;17.056;2023-03-14T07:05:40;10.20;;;3.50;;
54368;SDS011;40266;52.434;17.056;2023-03-14T07:08:25;6.20;;;3.50;;
54368;SDS011;40266;52.434;17.056;2023-03-14T07:11:10;6.30;;;3.20;;
54368;SDS011;40266;52.434;17.056;2023-03-14T07:13:55;6.20;;;3.20;;
54368;SDS011;40266;52.434;17.056;2023-03-14T07:16:38;7.90;;;3.90;;
54368;SDS011;40266;52.434;17.056;2023-03-14T07:19:23;8.20;;;3.80;;
54368;SDS011;40266;52.434;17.056;2023-03-14T07:22:08;8.20;;;3.50;;
54368;SDS011;40266;52.434;17.056;2023-03-14T07:24:52;8.20;;;3.50;;
54368;SDS011;40266;52.434;17.056;2023-03-14T07:27:38;9.60;;;3.50;;
54368;SDS011;40266;52.434;17.056;2023-03-14T07:30:22;8.00;;;3.40;;
54368;SDS011;40266;52.434;17.056;2023-03-14T07:33:06;4.90;;;2.50;;
54368;SDS011;40266;52.434;17.056;2023-03-14T07:35:53;5.70;;;3.30;;
54368;SDS011;40266;52.434;17.056;2023-03-14T07:38:37;5.80;;;3.10;;
54368;SDS011;40266;52.434;17.056;2023-03-14T07:41:31;6.70;;;3.10;;
54368;SDS011;40266;52.434;17.056;2023-03-14T07:44:34;7.20;;;2.60;;
54368;SDS011;40266;52.434;17.056;2023-03-14T07:47:18;3.70;;;2.60;;
54368;SDS011;40266;52.434;17.056;2023-03-14T07:50:06;4.60;;;2.40;;
54368;SDS011;40266;52.434;17.056;2023-03-14T07:52:50;7.20;;;3.00;;
54368;SDS011;40266;52.434;17.056;2023-03-14T07:55:35;4.50;;;2.60;;
54368;SDS011;40266;52.434;17.056;2023-03-14T07:58:19;7.90;;;3.10;;
54368;SDS011;40266;52.434;17.056;2023-03-14T08:01:05;4.90;;;3.00;;
54368;SDS011;40266;52.434;17.056;2023-03-14T08:03:49;5.80;;;3.20;;
54368;SDS011;40266;52.434;17.056;2023-03-14T08:06:34;10.80;;;3.50;;
54368;SDS011;40266;52.434;17.056;2023-03-14T08:09:18;6.30;;;2.60;;
54368;SDS011;40266;52.434;17.056;2023-03-14T08:12:03;4.40;;;2.70;;
54368;SDS011;40266;52.434;17.056;2023-03-14T08:14:46;7.20;;;2.80;;
54368;SDS011;40266;52.434;17.056;2023-03-14T08:17:29;4.60;;;2.70;;
54368;SDS011;40266;52.434;17.056;2023-03-14T08:20:13;6.70;;;2.90;;
54368;SDS011;40266;52.434;17.056;2023-03-14T08:23:01;8.30;;;3.00;;
54368;SDS011;40266;52.434;17.056;2023-03-14T08:25:45;3.50;;;2.20;;
54368;SDS011;40266;52.434;17.056;2023-03-14T08:28:29;5.90;;;2.80;;
54368;SDS011;40266;52.434;17.056;2023-03-14T08:31:15;7.20;;;2.70;;
54368;SDS011;40266;52.434;17.056;2023-03-14T08:33:59;3.50;;;2.10;;
54368;SDS011;40266;52.434;17.056;2023-03-14T08:36:43;5.50;;;2.50;;
54368;SDS011;40266;52.434;17.056;2023-03-14T08:39:27;4.20;;;2.10;;
54368;SDS011;40266;52.434;17.056;2023-03-14T08:42:11;4.50;;;2.00;;
54368;SDS011;40266;52.434;17.056;2023-03-14T08:44:55;4.50;;;2.10;;
54368;SDS011;40266;52.434;17.056;2023-03-14T08:47:39;4.90;;;2.30;;
54368;SDS011;40266;52.434;17.056;2023-03-14T08:50:23;4.70;;;1.60;;
54368;SDS011;40266;52.434;17.056;2023-03-14T08:53:07;6.30;;;2.50;;
54368;SDS011;40266;52.434;17.056;2023-03-14T08:55:52;2.30;;;1.50;;
54368;SDS011;40266;52.434;17.056;2023-03-14T08:58:37;5.00;;;1.70;;
54368;SDS011;40266;52.434;17.056;2023-03-14T09:01:21;3.90;;;1.90;;
54368;SDS011;40266;52.434;17.056;2023-03-14T09:04:07;6.30;;;2.10;;
54368;SDS011;40266;52.434;17.056;2023-03-14T09:06:51;5.80;;;2.00;;
54368;SDS011;40266;52.434;17.056;2023-03-14T09:09:35;5.70;;;2.50;;
54368;SDS011;40266;52.434;17.056;2023-03-14T09:12:20;2.80;;;2.00;;
54368;SDS011;40266;52.434;17.056;2023-03-14T09:15:05;6.60;;;2.20;;
54368;SDS011;40266;52.434;17.056;2023-03-14T09:17:50;6.30;;;2.20;;
54368;SDS011;40266;52.434;17.056;2023-03-14T09:20:33;3.60;;;1.90;;
54368;SDS011;40266;52.434;17.056;2023-03-14T09:23:18;5.70;;;1.80;;
54368;SDS011;40266;52.434;17.056;2023-03-14T09:26:01;7.80;;;2.50;;
54368;SDS011;40266;52.434;17.056;2023-03-14T09:28:45;3.10;;;1.80;;
54368;SDS011;40266;52.434;17.056;2023-03-14T09:31:28;9.80;;;2.60;;
54368;SDS011;40266;52.434;17.056;2023-03-14T09:34:13;3.20;;;1.70;;
54368;SDS011;40266;52.434;17.056;2023-03-14T09:36:56;6.40;;;2.10;;
54368;SDS011;40266;52.434;17.056;2023-03-14T09:39:40;7.10;;;2.50;;
54368;SDS011;40266;52.434;17.056;2023-03-14T09:42:25;6.30;;;2.00;;
54368;SDS011;40266;52.434;17.056;2023-03-14T09:45:45;5.90;;;2.70;;
54368;SDS011;40266;52.434;17.056;2023-03-14T09:48:27;6.10;;;2.30;;
54368;SDS011;40266;52.434;17.056;2023-03-14T09:51:14;6.80;;;2.80;;
54368;SDS011;40266;52.434;17.056;2023-03-14T09:54:00;3.50;;;1.90;;
54368;SDS011;40266;52.434;17.056;2023-03-14T09:56:45;6.80;;;2.70;;
54368;SDS011;40266;52.434;17.056;2023-03-14T09:59:28;3.80;;;1.90;;
54368;SDS011;40266;52.434;17.056;2023-03-14T10:02:13;6.40;;;2.00;;
54368;SDS011;40266;52.434;17.056;2023-03-14T10:05:02;6.60;;;2.30;;
54368;SDS011;40266;52.434;17.056;2023-03-14T10:07:57;6.30;;;2.10;;
54368;SDS011;40266;52.434;17.056;2023-03-14T10:10:41;5.60;;;2.00;;
54368;SDS011;40266;52.434;17.056;2023-03-14T10:13:25;6.20;;;2.30;;
54368;SDS011;40266;52.434;17.056;2023-03-14T10:16:11;5.50;;;2.50;;
54368;SDS011;40266;52.434;17.056;2023-03-14T10:19:01;7.80;;;3.20;;
54368;SDS011;40266;52.434;17.056;2023-03-14T10:21:52;8.40;;;2.60;;
54368;SDS011;40266;52.434;17.056;2023-03-14T10:24:38;5.90;;;2.30;;
54368;SDS011;40266;52.434;17.056;2023-03-14T10:27:30;5.00;;;2.50;;
54368;SDS011;40266;52.434;17.056;2023-03-14T10:33:32;5.40;;;2.30;;
54368;SDS011;40266;52.434;17.056;2023-03-14T10:36:19;7.10;;;2.50;;
54368;SDS011;40266;52.434;17.056;2023-03-14T10:42:25;4.50;;;2.60;;
54368;SDS011;40266;52.434;17.056;2023-03-14T10:48:23;4.50;;;1.90;;
54368;SDS011;40266;52.434;17.056;2023-03-14T10:54:23;9.20;;;2.80;;
54368;SDS011;40266;52.434;17.056;2023-03-14T10:57:07;7.70;;;2.60;;
54368;SDS011;40266;52.434;17.056;2023-03-14T10:59:50;6.00;;;2.60;;
54368;SDS011;40266;52.434;17.056;2023-03-14T11:02:47;5.50;;;2.40;;
54368;SDS011;40266;52.434;17.056;2023-03-14T11:05:41;4.80;;;1.60;;
54368;SDS011;40266;52.434;17.056;2023-03-14T11:08:33;7.00;;;2.70;;
54368;SDS011;40266;52.434;17.056;2023-03-14T11:11:30;4.20;;;2.30;;
54368;SDS011;40266;52.434;17.056;2023-03-14T11:14:23;6.70;;;2.80;;
54368;SDS011;40266;52.434;17.056;2023-03-14T11:17:22;6.70;;;3.00;;
54368;SDS011;40266;52.434;17.056;2023-03-14T11:29:20;5.10;;;2.90;;
54368;SDS011;40266;52.434;17.056;2023-03-14T11:32:19;5.00;;;2.60;;
54368;SDS011;40266;52.434;17.056;2023-03-14T11:35:32;6.30;;;2.90;;
54368;SDS011;40266;52.434;17.056;2023-03-14T11:38:25;6.00;;;3.00;;
54368;SDS011;40266;52.434;17.056;2023-03-14T11:41:15;5.90;;;2.90;;
54368;SDS011;40266;52.434;17.056;2023-03-14T11:50:16;3.40;;;2.20;;
54368;SDS011;40266;52.434;17.056;2023-03-14T11:53:04;5.40;;;2.40;;
54368;SDS011;40266;52.434;17.056;2023-03-14T11:55:56;13.30;;;3.40;;
54368;SDS011;40266;52.434;17.056;2023-03-14T11:58:50;8.30;;;3.50;;
54368;SDS011;40266;52.434;17.056;2023-03-14T12:01:49;6.10;;;2.90;;
54368;SDS011;40266;52.434;17.056;2023-03-14T12:05:02;7.60;;;2.90;;
54368;SDS011;40266;52.434;17.056;2023-03-14T12:10:54;8.80;;;4.50;;
54368;SDS011;40266;52.434;17.056;2023-03-14T12:13:45;6.80;;;3.20;;
54368;SDS011;40266;52.434;17.056;2023-03-14T12:16:34;5.90;;;2.90;;
54368;SDS011;40266;52.434;17.056;2023-03-14T12:19:26;6.10;;;2.70;;
54368;SDS011;40266;52.434;17.056;2023-03-14T12:22:47;9.30;;;3.40;;
54368;SDS011;40266;52.434;17.056;2023-03-14T12:25:28;7.90;;;2.70;;
54368;SDS011;40266;52.434;17.056;2023-03-14T12:28:22;8.50;;;3.20;;
54368;SDS011;40266;52.434;17.056;2023-03-14T12:40:31;7.50;;;2.60;;
54368;SDS011;40266;52.434;17.056;2023-03-14T12:43:25;4.60;;;2.20;;
54368;SDS011;40266;52.434;17.056;2023-03-14T12:49:07;6.60;;;2.00;;
54368;SDS011;40266;52.434;17.056;2023-03-14T12:51:54;7.30;;;1.80;;
54368;SDS011;40266;52.434;17.056;2023-03-14T12:55:03;2.60;;;1.70;;
54368;SDS011;40266;52.434;17.056;2023-03-14T13:01:18;5.00;;;1.40;;
54368;SDS011;40266;52.434;17.056;2023-03-14T13:04:09;4.50;;;1.80;;
54368;SDS011;40266;52.434;17.056;2023-03-14T13:09:53;5.00;;;1.90;;
54368;SDS011;40266;52.434;17.056;2023-03-14T13:12:49;4.20;;;1.40;;
54368;SDS011;40266;52.434;17.056;2023-03-14T13:15:40;5.90;;;1.90;;
54368;SDS011;40266;52.434;17.056;2023-03-14T13:18:35;4.00;;;1.20;;
54368;SDS011;40266;52.434;17.056;2023-03-14T13:21:22;4.10;;;1.00;;
54368;SDS011;40266;52.434;17.056;2023-03-14T13:24:20;1.90;;;1.40;;
54368;SDS011;40266;52.434;17.056;2023-03-14T13:27:08;2.60;;;1.30;;
54368;SDS011;40266;52.434;17.056;2023-03-14T13:30:19;2.20;;;1.00;;
54368;SDS011;40266;52.434;17.056;2023-03-14T13:33:11;3.40;;;1.30;;
54368;SDS011;40266;52.434;17.056;2023-03-14T13:35:58;2.80;;;1.10;;
54368;SDS011;40266;52.434;17.056;2023-03-14T13:38:43;3.20;;;1.30;;
54368;SDS011;40266;52.434;17.056;2023-03-14T13:41:27;5.40;;;1.60;;
54368;SDS011;40266;52.434;17.056;2023-03-14T13:44:16;4.60;;;1.40;;
54368;SDS011;40266;52.434;17.056;2023-03-14T13:49:49;5.10;;;1.50;;
54368;SDS011;40266;52.434;17.056;2023-03-14T13:52:37;5.10;;;1.40;;
54368;SDS011;40266;52.434;17.056;2023-03-14T13:55:22;4.70;;;1.70;;
54368;SDS011;40266;52.434;17.056;2023-03-14T13:58:33;6.40;;;2.00;;
54368;SDS011;40266;52.434;17.056;2023-03-14T14:04:13;5.50;;;2.10;;
54368;SDS011;40266;52.434;17.056;2023-03-14T14:06:59;11.50;;;1.70;;
54368;SDS011;40266;52.434;17.056;2023-03-14T14:09:49;2.80;;;1.90;;
54368;SDS011;40266;52.434;17.056;2023-03-14T14:12:37;4.90;;;1.60;;
54368;SDS011;40266;52.434;17.056;2023-03-14T14:15:26;4.90;;;2.00;;
54368;SDS011;40266;52.434;17.056;2023-03-14T14:18:14;3.20;;;1.50;;
54368;SDS011;40266;52.434;17.056;2023-03-14T14:21:01;4.10;;;2.20;;
54368;SDS011;40266;52.434;17.056;2023-03-14T14:23:46;3.60;;;1.20;;
54368;SDS011;40266;52.434;17.056;2023-03-14T14:26:30;7.60;;;1.80;;
54368;SDS011;40266;52.434;17.056;2023-03-14T14:29:23;2.90;;;1.30;;
54368;SDS011;40266;52.434;17.056;2023-03-14T14:32:15;4.50;;;1.50;;
54368;SDS011;40266;52.434;17.056;2023-03-14T14:34:59;6.30;;;1.90;;
54368;SDS011;40266;52.434;17.056;2023-03-14T14:37:44;2.40;;;1.60;;
54368;SDS011;40266;52.434;17.056;2023-03-14T14:40:29;7.00;;;1.80;;
54368;SDS011;40266;52.434;17.056;2023-03-14T14:43:18;5.60;;;1.90;;
54368;SDS011;40266;52.434;17.056;2023-03-14T14:46:06;4.90;;;1.90;;
54368;SDS011;40266;52.434;17.056;2023-03-14T14:48:54;3.40;;;1.20;;
54368;SDS011;40266;52.434;17.056;2023-03-14T14:51:41;2.90;;;2.40;;
54368;SDS011;40266;52.434;17.056;2023-03-14T14:54:34;2.90;;;1.50;;
54368;SDS011;40266;52.434;17.056;2023-03-14T14:57:27;2.90;;;1.00;;
54368;SDS011;40266;52.434;17.056;2023-03-14T15:00:19;4.00;;;1.50;;
54368;SDS011;40266;52.434;17.056;2023-03-14T15:03:11;4.30;;;1.60;;
54368;SDS011;40266;52.434;17.056;2023-03-14T15:05:58;2.20;;;1.40;;
54368;SDS011;40266;52.434;17.056;2023-03-14T15:08:44;3.20;;;1.40;;
54368;SDS011;40266;52.434;17.056;2023-03-14T15:11:29;7.40;;;1.60;;
54368;SDS011;40266;52.434;17.056;2023-03-14T15:14:13;1.80;;;1.20;;
54368;SDS011;40266;52.434;17.056;2023-03-14T15:16:57;2.90;;;1.00;;
54368;SDS011;40266;52.434;17.056;2023-03-14T15:19:40;5.50;;;2.20;;
54368;SDS011;40266;52.434;17.056;2023-03-14T15:22:24;6.30;;;2.20;;
54368;SDS011;40266;52.434;17.056;2023-03-14T15:25:08;5.60;;;2.00;;
54368;SDS011;40266;52.434;17.056;2023-03-14T15:28:20;3.60;;;1.90;;
54368;SDS011;40266;52.434;17.056;2023-03-14T15:31:10;2.60;;;1.30;;
54368;SDS011;40266;52.434;17.056;2023-03-14T15:33:55;2.60;;;1.30;;
54368;SDS011;40266;52.434;17.056;2023-03-14T15:36:39;5.40;;;2.00;;
54368;SDS011;40266;52.434;17.056;2023-03-14T15:39:23;5.40;;;2.10;;
54368;SDS011;40266;52.434;17.056;2023-03-14T15:42:07;5.30;;;2.60;;
54368;SDS011;40266;52.434;17.056;2023-03-14T15:44:51;8.20;;;2.50;;
54368;SDS011;40266;52.434;17.056;2023-03-14T15:47:34;8.40;;;2.80;;
54368;SDS011;40266;52.434;17.056;2023-03-14T15:50:18;8.30;;;3.60;;
54368;SDS011;40266;52.434;17.056;2023-03-14T15:53:02;8.70;;;3.30;;
54368;SDS011;40266;52.434;17.056;2023-03-14T15:55:46;4.60;;;2.70;;
54368;SDS011;40266;52.434;17.056;2023-03-14T15:58:29;8.20;;;3.90;;
54368;SDS011;40266;52.434;17.056;2023-03-14T16:01:16;6.70;;;3.20;;
54368;SDS011;40266;52.434;17.056;2023-03-14T16:04:02;7.70;;;3.20;;
54368;SDS011;40266;52.434;17.056;2023-03-14T16:06:46;7.00;;;3.60;;
54368;SDS011;40266;52.434;17.056;2023-03-14T16:09:30;7.00;;;3.00;;
54368;SDS011;40266;52.434;17.056;2023-03-14T16:12:14;5.90;;;3.20;;
54368;SDS011;40266;52.434;17.056;2023-03-14T16:14:57;5.60;;;2.60;;
54368;SDS011;40266;52.434;17.056;2023-03-14T16:17:41;5.30;;;2.60;;
54368;SDS011;40266;52.434;17.056;2023-03-14T16:20:34;8.00;;;3.00;;
54368;SDS011;40266;52.434;17.056;2023-03-14T16:23:30;9.20;;;2.90;;
54368;SDS011;40266;52.434;17.056;2023-03-14T16:26:15;5.60;;;2.50;;
54368;SDS011;40266;52.434;17.056;2023-03-14T16:29:00;8.00;;;2.70;;
54368;SDS011;40266;52.434;17.056;2023-03-14T16:31:43;6.60;;;2.80;;
54368;SDS011;40266;52.434;17.056;2023-03-14T16:34:27;8.10;;;2.70;;
54368;SDS011;40266;52.434;17.056;2023-03-14T16:37:11;5.80;;;2.50;;
54368;SDS011;40266;52.434;17.056;2023-03-14T16:39:55;8.40;;;3.10;;
54368;SDS011;40266;52.434;17.056;2023-03-14T16:42:54;9.30;;;3.30;;
54368;SDS011;40266;52.434;17.056;2023-03-14T16:45:57;10.40;;;3.30;;
54368;SDS011;40266;52.434;17.056;2023-03-14T16:48:43;7.00;;;3.40;;
54368;SDS011;40266;52.434;17.056;2023-03-14T16:51:27;13.20;;;4.10;;
54368;SDS011;40266;52.434;17.056;2023-03-14T16:54:11;8.10;;;3.60;;
54368;SDS011;40266;52.434;17.056;2023-03-14T16:56:55;9.40;;;3.40;;
54368;SDS011;40266;52.434;17.056;2023-03-14T16:59:40;10.60;;;4.20;;
54368;SDS011;40266;52.434;17.056;2023-03-14T17:02:23;10.80;;;4.30;;
54368;SDS011;40266;52.434;17.056;2023-03-14T17:05:07;11.50;;;4.20;;
54368;SDS011;40266;52.434;17.056;2023-03-14T17:07:52;11.40;;;4.20;;
54368;SDS011;40266;52.434;17.056;2023-03-14T17:10:35;10.70;;;4.40;;
54368;SDS011;40266;52.434;17.056;2023-03-14T17:13:21;9.60;;;3.90;;
54368;SDS011;40266;52.434;17.056;2023-03-14T17:16:09;7.40;;;3.60;;
54368;SDS011;40266;52.434;17.056;2023-03-14T17:18:54;11.30;;;4.10;;
54368;SDS011;40266;52.434;17.056;2023-03-14T17:21:39;10.60;;;4.50;;
54368;SDS011;40266;52.434;17.056;2023-03-14T17:24:23;8.40;;;3.30;;
54368;SDS011;40266;52.434;17.056;2023-03-14T17:27:06;6.80;;;3.10;;
54368;SDS011;40266;52.434;17.056;2023-03-14T17:29:50;6.50;;;3.50;;
54368;SDS011;40266;52.434;17.056;2023-03-14T17:32:33;7.90;;;3.70;;
54368;SDS011;40266;52.434;17.056;2023-03-14T17:35:16;8.60;;;3.80;;
54368;SDS011;40266;52.434;17.056;2023-03-14T17:38:03;8.70;;;3.30;;
54368;SDS011;40266;52.434;17.056;2023-03-14T17:40:47;9.10;;;3.60;;
54368;SDS011;40266;52.434;17.056;2023-03-14T17:43:31;7.90;;;3.30;;
54368;SDS011;40266;52.434;17.056;2023-03-14T17:46:15;6.90;;;3.30;;